Menu       Home   X °C

Select another period ( hide this area )

Units Period Custom range Directly to
Metric English Both
Daily Weekly Monthly Yearly
use both date-selectors for a custom range
previous Day
With this date
Daily Summary for Friday 01 March 2024
Time Temp. ( °F ) Dew pt. ( °F ) Wind ( mph ) From Gust ( mph ) Pressure ( in ) Humid.( % ) Rainrate ( in )
High44.8 42.1 6.0 SSE ( 141/247 ) 7.0 30.24 99 0.66
Average40.5 32.6 1.6 SSE #96/154 2.1 30.20 78 0.40
Low36.7 21.7 -   0.0 30.19 40 -
Daily Tabular details for Friday 01 March 2024
Time Temp. ( °F ) Dew pt. ( °F ) Wind ( mph ) From Gust ( mph ) Pressure ( in ) Humid.( % ) Rainrate ( in )
00:04 44.8 22.3 1.0 South 1.0 30.24 41 -
00:09 44.6 23.5 1.0 South 1.0 30.24 43 -
00:14 44.4 22.8   Calm 1.0 30.24 42 -
00:19 44.2 22.6 1.0 South 1.0 30.24 42 -
00:24 44.2 22.6 1.0 South 1.0 30.24 42 -
00:29 44.6 21.7 2.0 South 2.0 30.23 40 -
00:34 44.6 21.7 2.0 South 2.0 30.23 40 -
00:39 44.6 22.3 3.0 South 3.0 30.23 41 -
00:44 44.8 25.7 3.0 South 3.0 30.23 47 -
00:49 44.8 25.7 2.0 South 3.0 30.23 47 -
00:54 44.6 22.3 3.0 South 3.0 30.23 41 -
00:59 44.6 23.5 1.0 South 1.0 30.23 43 -
01:04 44.6 23.4 2.0 South 2.0 30.22 43 -
01:09 44.6 21.7 1.0 South 2.0 30.23 40 -
01:14 44.6 23.0 1.0 South 1.0 30.23 42 -
01:19 44.8 23.2 1.0 South 2.0 30.23 42 -
01:24 44.8 24.1 1.0 South 1.0 30.22 44 -
01:29 44.4 23.4 1.0 South 2.0 30.23 43 -
01:34 44.2 23.7 2.0 South 2.0 30.23 44 -
01:39 44.4 23.9 2.0 South 2.0 30.23 44 -
01:44 44.1 23.0 2.0 South 2.0 30.22 43 -
01:49 44.1 23.0 2.0 South 2.0 30.23 43 -
01:54 44.1 23.0 2.0 South 2.0 30.23 43 -
01:59 44.2 23.2 2.0 South 2.0 30.24 43 -
02:04 44.2 23.7 2.0 South 2.0 30.23 44 -
02:09 44.2 23.2 1.0 South 2.0 30.23 43 -
02:14 44.1 23.5 2.0 South 3.0 30.23 44 -
02:19 44.1 24.1 3.0 South 5.0 30.23 45 -
02:24 44.2 23.7 3.0 South 5.0 30.23 44 -
02:29 44.2 23.7 2.0 South 2.0 30.23 44 -
02:34 44.2 24.1 3.0 South 3.0 30.23 45 -
02:39 44.1 23.5 3.0 South 3.0 30.23 44 -
02:44 44.1 24.1 6.0 South 7.0 30.22 45 -
02:49 44.1 24.1 2.0 South 7.0 30.22 45 -
02:54 43.9 24.4 2.0 South 3.0 30.22 46 -
02:59 43.9 24.3 3.0 South 3.0 30.23 46 -
03:04 43.7 24.3 2.0 South 3.0 30.22 46 -
03:09 43.5 24.6 2.0 South 2.0 30.22 47 -
03:14 43.5 24.6 3.0 South 5.0 30.22 47 -
03:19 43.5 25.7 3.0 South 5.0 30.22 49 -
03:24 43.5 24.6 2.0 South 5.0 30.22 47 -
03:29 43.5 24.1 3.0 South 3.0 30.21 46 -
03:34 43.5 24.6 2.0 South 3.0 30.22 47 -
03:39 43.7 24.3 2.0 South 2.0 30.21 46 -
03:44 44.1 23.7 3.0 South 5.0 30.22 45 -
03:49 44.1 24.1 3.0 South 5.0 30.22 45 -
03:54 44.1 25.9 4.0 South 5.0 30.22 49 -
03:59 43.7 25.3 3.0 South 5.0 30.22 48 -
04:04 43.5 25.2 3.0 South 5.0 30.22 48 -
04:09 43.5 26.6 4.0 SSE 7.0 30.22 51 -
04:14 43.5 31.5 1.0 SSE 1.0 30.22 65 -
04:19 42.3 31.6 2.0 SSE 2.0 30.21 69 -
04:24 41.0 34.5 1.0 SSE 1.0 30.22 79 0.05
04:29 40.3 34.0 1.0 SSE 1.0 30.22 81 0.05
04:34 39.2 33.8 1.0 SSE 1.0 30.22 82 0.05
04:39 39.4 33.6 4.0 SSE 6.0 30.21 82 -
04:44 39.6 32.4 2.0 SSE 2.0 30.21 76 -
04:49 39.9 32.9 3.0 SSE 3.0 30.21 77 -
04:54 40.3 31.5 2.0 SSE 3.0 30.21 71 -
04:59 40.6 32.7 3.0 SSE 3.0 30.20 73 -
05:04 40.6 33.1   Calm 1.0 30.21 74 -
05:09 40.8 36.0 1.0 SSE 1.0 30.21 83 -
05:14 40.8 36.0   Calm 1.0 30.21 83 -
05:19 40.3 34.2 1.0 SSE 1.0 30.22 80 0.07
05:24 39.9 34.2 1.0 SSE 1.0 30.21 83 0.07
05:29 38.8 35.2 1.0 SSE 1.0 30.21 88 0.07
05:34 38.5 35.4   Calm   30.22 90 0.09
05:39 38.1 35.6 1.0 SSE 1.0 30.21 92 0.09
05:44 37.8 35.8   Calm 1.0 30.21 93 0.09
05:49 37.6 35.6 2.0 SSE 2.0 30.21 93 -
05:54 37.4 34.7 2.0 SSE 2.0 30.22 90 -
05:59 37.4 35.1 2.0 SSE 3.0 30.22 91 -
06:04 37.2 34.5 2.0 SSE 2.0 30.21 90 -
06:09 37.2 34.5 2.0 SSE 2.0 30.22 90 -
06:14 37.2 34.5 2.0 SSE 2.0 30.22 90 -
06:19 37.2 34.5 2.0 SSE 2.0 30.22 90 -
06:24 37.2 34.9 3.0 SSE 3.0 30.21 91 -
06:29 37.4 34.5 2.0 SSE 3.0 30.22 90 -
06:34 37.4 34.7 2.0 SSE 3.0 30.22 90 0.07
06:39 37.4 34.9 2.0 SSE 3.0 30.21 91 0.07
06:44 37.2 35.1 3.0 SSE 3.0 30.22 92 0.07
06:49 37.2 35.1 2.0 SSE 2.0 30.21 93 0.05
06:54 37.0 35.2 1.0 SSE 2.0 30.21 94 0.05
06:59 36.9 35.6 3.0 SSE 3.0 30.21 95 0.05
07:04 36.7 35.4 1.0 SSE 2.0 30.21 95 -
07:09 36.7 35.4 2.0 SSE 2.0 30.22 95 -
07:14 36.7 35.4 2.0 SSE 3.0 30.22 95 -
07:19 36.7 35.4 1.0 SSE 3.0 30.22 95 -
07:24 36.9 35.6 1.0 SSE 1.0 30.22 95 -
07:29 36.9 36.0 1.0 SSE 1.0 30.22 96 -
07:34 37.0 36.1 2.0 SSE 2.0 30.21 96 0.05
07:39 37.0 36.1 2.0 SSE 2.0 30.21 96 0.05
07:44 37.0 36.1 1.0 SSE 1.0 30.21 96 0.05
07:49 37.0 36.1 1.0 SSE 1.0 30.21 96 -
07:54 37.2 36.3 2.0 SSE 3.0 30.21 96 -
07:59 37.2 36.3 1.0 SSE 1.0 30.21 96 -
08:04 37.2 36.3 1.0 SSE 1.0 30.22 96 0.05
08:09 37.4 36.5 1.0 SSE 1.0 30.22 96 0.05
08:14 37.4 36.5 2.0 SSE 2.0 30.21 96 0.07
08:19 37.4 36.7 1.0 SSE 1.0 30.21 97 0.07
08:24 37.6 36.9 1.0 SSE 1.0 30.21 97 0.07
08:29 37.8 37.0 1.0 SSE 1.0 30.21 97 -
08:34 37.8 37.0   Calm 1.0 30.21 97 -
08:39 37.8 37.2 1.0 SSE 1.0 30.21 98 -
08:44 37.8 37.2 1.0 SSE 1.0 30.21 98 -
08:49 37.8 37.2 1.0 SSE 1.0 30.21 98 -
08:54 37.6 37.0 2.0 SSE 2.0 30.21 98 -
08:59 37.8 37.2 1.0 SSE 2.0 30.21 98 -
09:04 37.8 37.2 2.0 SSE 2.0 30.21 98 -
09:09 37.8 37.2 1.0 SSE 2.0 30.21 98 -
09:14 37.8 37.2 1.0 SSE 2.0 30.21 98 -
09:19 37.8 37.2 2.0 SSE 2.0 30.20 98 -
09:24 37.9 37.4 1.0 SSE 2.0 30.21 98 0.05
09:29 37.9 37.4 1.0 SSE 1.0 30.21 98 0.05
09:34 37.9 37.4 1.0 SSE 1.0 30.21 98 0.12
09:39 38.1 37.6 1.0 SSE 1.0 30.21 98 0.21
09:44 38.1 37.6 1.0 SSE 1.0 30.21 98 0.26
09:49 38.1 37.6 1.0 SSE 1.0 30.22 98 0.26
09:54 38.1 37.6 2.0 SSE 2.0 30.22 98 0.24
09:59 38.3 37.9 1.0 SSE 1.0 30.23 99 0.28
10:04 38.3 37.9 2.0 SSE 2.0 30.23 99 0.38
10:09 38.5 38.1 2.0 SSE 2.0 30.22 99 0.61
10:14 38.5 38.1   Calm 1.0 30.22 99 0.59
10:19 38.5 38.1 1.0 SSE 1.0 30.22 99 0.45
10:24 38.5 38.1   Calm 1.0 30.22 99 0.26
10:29 38.5 38.1 1.0 SSE 1.0 30.22 99 0.26
10:34 38.5 38.1 1.0 SSE 1.0 30.22 99 0.28
10:39 38.5 38.1 2.0 SSE 2.0 30.22 99 0.28
10:44 38.7 38.3   Calm 1.0 30.22 99 0.28
10:49 38.8 38.5 2.0 SSE 2.0 30.22 99 0.33
10:54 39.0 38.7   Calm 1.0 30.21 99 0.33
10:59 39.0 38.7 1.0 SSE 1.0 30.22 99 0.31
11:04 39.0 38.7 1.0 SSE 1.0 30.22 99 0.21
11:09 39.2 38.8 1.0 SSE 2.0 30.22 99 0.24
11:14 39.4 39.0 1.0 SSE 2.0 30.22 99 0.26
11:19 39.6 39.2 1.0 SSE 1.0 30.22 99 0.21
11:24 39.6 39.2 1.0 SSE 1.0 30.22 99 0.17
11:29 39.7 39.4 1.0 SSE 1.0 30.22 99 0.17
11:34 39.9 39.6 1.0 SSE 1.0 30.22 99 0.21
11:39 40.1 39.7 1.0 SSE 1.0 30.22 99 0.21
11:44 40.1 39.7 1.0 SSE 1.0 30.21 99 0.33
11:49 40.3 39.9 1.0 SSE 1.0 30.22 99 0.33
11:54 40.5 40.1 1.0 SSE 1.0 30.22 99 0.31
11:59 40.6 40.3 1.0 SSE 2.0 30.21 99 0.28
12:04 40.6 40.3 2.0 SSE 2.0 30.21 99 0.28
12:09 40.8 40.5 1.0 SSE 2.0 30.21 99 0.17
12:14 41.2 40.8 1.0 SSE 2.0 30.21 99 0.21
12:19 41.4 41.0 1.0 SSE 1.0 30.20 99 0.28
12:24 41.4 41.0 1.0 SSE 2.0 30.21 99 0.33
12:29 41.5 41.2 1.0 SSE 2.0 30.20 99 0.28
12:34 41.5 41.2 1.0 SSE 1.0 30.20 99 0.45
12:39 41.7 41.4 1.0 SSE 1.0 30.20 99 0.59
12:44 41.9 41.5 1.0 SSE 1.0 30.20 99 0.66
12:49 42.4 42.1 1.0 SSE 1.0 30.19 99 0.47

Download your copy of this data-set  from WeatherUnderground

Our weather-data as stored at Weather Underground

Original Weather Page

My Ham Radio Page